Observations for TEES-SIDE, United Kingdom (EGNV)

EGNV 242150Z 22007KT 190V250 9999 SCT035 02/M00 Q1009   
EGNV 242120Z 22006KT 9999 SCT023 01/M01 Q1009   
EGNV 242050Z 23005KT 190V290 9999 FEW025 01/M00 Q1009   
EGNV 242020Z 20009KT 9999 FEW021 02/00 Q1009
EGNV 241950Z 21008KT 9999 FEW036 02/00 Q1009
EGNV 241920Z 20007KT 9999 FEW040 03/00 Q1009
EGNV 241850Z 22008KT 9999 FEW023 02/00 Q1009
EGNV 241750Z 23009KT 9999 SCT023 04/01 Q1008
EGNV 241720Z 19007KT 9999 FEW029 03/00 Q1008
EGNV 241650Z 22009KT 9999 FEW020 02/M00 Q1008   
EGNV 241620Z 20008KT 9999 FEW020 03/M00 Q1008   
EGNV 241550Z 21008KT 9999 FEW020 04/00 Q1008
EGNV 241520Z 22007KT 9999 FEW020 05/00 Q1008
EGNV 241450Z 24012KT 9999 FEW025 06/00 Q1008
EGNV 241420Z 24011KT 9999 FEW025 07/01 Q1008
EGNV 241350Z 26013KT 9999 FEW025 07/02 Q1008
EGNV 241320Z 26010KT 230V290 9999 FEW025 07/02 Q1008
EGNV 241250Z 18005KT 9999 FEW025 06/01 Q1008
EGNV 241220Z 17005KT 9999 FEW025 06/01 Q1008
EGNV 241150Z 20006KT 160V230 9999 FEW025 05/01 Q1008
EGNV 241120Z 25006KT 230V290 9999 FEW025 05/01 Q1008
EGNV 241050Z 23004KT 200V280 9999 FEW025 04/01 Q1008
EGNV 241020Z 22008KT 9999 FEW025 03/00 Q1008
EGNV 240950Z 23007KT 9999 FEW025 02/M00 Q1007   
EGNV 240920Z 23005KT 9999 FEW024 00/M01 Q1007   
EGNV 240850Z 23005KT 9999 FEW038 00/M02 Q1007   
EGNV 240820Z 21007KT 9999 FEW020 SCT045 00/M02 Q1006
EGNV 240750Z 22009KT 9999 FEW025 M01/M02 Q1006  
EGNV 240720Z 21006KT 9999 FEW025 M01/M02 Q1006  
EGNV 240650Z 23005KT CAVOK M02/M03 Q1006
EGNV 240620Z 23005KT CAVOK M01/M02 Q1006
EGNV 240550Z 21005KT CAVOK M00/M02 Q1005